KTMB/TMB METAR and TAF weather

Enter ICAO airport designator
Station Type Date Time Source
KTMB METAR 2019/10/23 02:32 UTC NOAA

KTMB 230232Z 27004KT 10SM FEW025 SCT033 26/25 A3002 RMK AO2 LTG DSNT NW T02610250


Station Type Date Time Source
KTMB Decoded METAR 2019/10/23 02:32 UTC NOAA

KENDALL-TAMIAMI EXEC AIRPORT , FL, United States (KTMB) 25-39N 080-26W 2M
Oct 22, 2019 - 10:32 PM EDT / 2019.10.23 0232 UTC
Wind: from the W (270 degrees) at 5 MPH (4 KT):0
Visibility: 10 mile(s):0
Sky conditions: partly cloudy
Weather: Lightning observed
Temperature: 79.0 F (26.1 C)
Dew Point: 77.0 F (25.0 C)
Relative Humidity: 93%
Pressure (altimeter): 30.02 in. Hg (1016 hPa)
ob: KTMB 230232Z 27004KT 10SM FEW025 SCT033 26/25 A3002 RMK AO2 LTG DSNT NW T02610250
cycle: 2

Station Type Date Time Source
KTMB TAF 2019/10/23 02:58 UTC NOAA

TAF
AMD KTMB 230158Z 2302/2324 VRB03KT P6SM FEW025 SCT250
FM231600 09010KT P6SM VCSH SCT030 SCT060

Example: see airport list